Time;durP1;ratioP1;P1;durP2;ratioP2;P2;SDS_P1;SDS_P2;PMS_P1;PMS_P2;Temp;Humidity;BMP_temperature;BMP_pressure;BME280_temperature;BME280_humidity;BME280_pressure;Samples;Min_cycle;Max_cycle;Signal;HPM_P1;HPM_P2
2024/01/19 05:02:13;;;;;;;1.13;1.13;;;0.00;99.90;;;;;;5128544;23;20240;-69
2024/01/19 05:04:41;;;;;;;0.70;0.70;;;0.00;99.90;;;;;;4974495;28;20205;-69
2024/01/19 05:07:08;;;;;;;1.70;0.98;;;0.00;99.90;;;;;;4973932;28;20271;-68
2024/01/19 05:09:35;;;;;;;0.77;0.77;;;-0.10;99.90;;;;;;4973658;28;20679;-69
2024/01/19 05:12:02;;;;;;;0.70;0.70;;;-0.10;99.90;;;;;;4973304;28;20714;-69
2024/01/19 05:14:29;;;;;;;1.23;1.23;;;-0.10;99.90;;;;;;4964103;28;20212;-70
2024/01/19 05:16:56;;;;;;;0.95;0.95;;;-0.10;99.90;;;;;;4960871;28;20737;-70
2024/01/19 05:19:24;;;;;;;1.20;1.20;;;-0.10;99.90;;;;;;4971142;28;20219;-69
2024/01/19 05:21:50;;;;;;;0.75;0.75;;;-0.20;99.90;;;;;;4972682;28;20228;-69
2024/01/19 05:24:17;;;;;;;2.15;1.10;;;-0.10;99.90;;;;;;4962640;28;20212;-70
2024/01/19 05:26:44;;;;;;;0.60;0.60;;;-0.10;99.90;;;;;;4966888;28;20197;-70
2024/01/19 05:29:11;;;;;;;0.60;0.60;;;-0.10;99.90;;;;;;4969388;28;20218;-70
2024/01/19 05:31:37;;;;;;;1.02;1.02;;;-0.10;99.90;;;;;;4972988;28;20978;-70
2024/01/19 05:34:04;;;;;;;2.15;1.90;;;0.00;99.90;;;;;;4971109;28;20209;-69
2024/01/19 05:36:33;;;;;;;2.25;1.67;;;0.00;99.90;;;;;;4973340;28;20225;-69
2024/01/19 05:38:59;;;;;;;0.88;0.88;;;0.00;99.90;;;;;;4969674;28;20208;-70
2024/01/19 05:41:26;;;;;;;1.38;1.27;;;0.10;99.90;;;;;;4967600;28;20233;-69
2024/01/19 05:43:53;;;;;;;3.88;1.35;;;0.10;99.90;;;;;;4964375;28;20208;-69
2024/01/19 05:46:20;;;;;;;1.02;1.02;;;0.10;99.90;;;;;;4972872;28;20227;-69
2024/01/19 05:48:46;;;;;;;1.40;1.38;;;0.10;99.90;;;;;;4971874;28;20567;-69
2024/01/19 05:51:14;;;;;;;2.00;1.85;;;0.20;99.90;;;;;;4972797;28;20235;-69
2024/01/19 05:53:42;;;;;;;0.70;0.70;;;0.20;99.90;;;;;;4970637;28;20256;-70
2024/01/19 05:56:08;;;;;;;2.65;2.55;;;0.20;99.90;;;;;;4963198;28;20227;-69
2024/01/19 05:58:35;;;;;;;2.00;2.00;;;0.10;99.90;;;;;;4970732;28;20208;-70
2024/01/19 06:01:03;;;;;;;2.10;2.00;;;0.10;99.90;;;;;;4969644;28;20237;-70
2024/01/19 06:03:30;;;;;;;2.22;1.50;;;0.20;99.90;;;;;;4967846;28;20672;-70
2024/01/19 06:05:57;;;;;;;2.78;2.58;;;0.20;99.90;;;;;;4960784;28;20205;-69
2024/01/19 06:08:24;;;;;;;1.63;1.52;;;0.20;99.90;;;;;;4965059;28;20208;-71
2024/01/19 06:10:52;;;;;;;1.35;1.35;;;0.20;99.90;;;;;;4964909;28;20268;-70
2024/01/19 06:13:18;;;;;;;2.05;1.95;;;0.10;99.90;;;;;;4967018;28;20213;-68
2024/01/19 06:15:45;;;;;;;2.95;2.75;;;0.20;99.90;;;;;;4970656;28;20235;-68
2024/01/19 06:18:12;;;;;;;4.13;3.83;;;0.20;99.90;;;;;;4969007;28;20217;-69
2024/01/19 06:20:41;;;;;;;2.22;1.58;;;0.20;99.90;;;;;;4968159;28;20224;-69
2024/01/19 06:23:08;;;;;;;4.15;3.80;;;0.20;99.90;;;;;;4961253;28;20213;-70
2024/01/19 06:25:34;;;;;;;0.63;0.63;;;0.20;99.90;;;;;;4967882;28;20228;-70
2024/01/19 06:28:03;;;;;;;2.15;2.05;;;0.20;99.90;;;;;;4967497;28;20205;-68
2024/01/19 06:30:30;;;;;;;1.80;1.38;;;0.20;99.90;;;;;;4964779;28;20230;-69
2024/01/19 06:32:57;;;;;;;2.10;2.00;;;0.20;99.90;;;;;;4966620;28;20659;-70
2024/01/19 06:35:23;;;;;;;1.33;1.33;;;0.20;99.90;;;;;;4961337;28;20209;-68
2024/01/19 06:37:50;;;;;;;2.80;2.60;;;0.30;99.90;;;;;;4964448;28;20258;-70
2024/01/19 06:40:18;;;;;;;2.55;2.45;;;0.30;99.90;;;;;;4964172;28;20240;-68
2024/01/19 06:42:44;;;;;;;1.35;1.35;;;0.30;99.90;;;;;;4957207;28;20205;-69
2024/01/19 06:45:15;;;;;;;1.75;1.75;;;0.30;99.90;;;;;;4970664;28;20205;-68
2024/01/19 06:47:42;;;;;;;3.33;1.25;;;0.30;99.90;;;;;;4969104;28;20204;-70
2024/01/19 06:50:10;;;;;;;2.70;1.25;;;0.30;99.90;;;;;;4963060;28;20224;-68
2024/01/19 06:52:37;;;;;;;2.17;1.85;;;0.30;99.90;;;;;;4967921;28;20214;-69
2024/01/19 06:55:04;;;;;;;0.85;0.80;;;0.20;99.90;;;;;;4963162;28;20212;-69
2024/01/19 06:57:31;;;;;;;5.65;1.40;;;0.20;99.90;;;;;;4964870;28;20264;-69
2024/01/19 06:59:57;;;;;;;0.95;0.95;;;0.20;99.90;;;;;;4967059;28;20224;-68
2024/01/19 07:02:25;;;;;;;1.02;1.02;;;0.20;99.90;;;;;;4959421;28;20232;-68
2024/01/19 07:04:52;;;;;;;4.10;1.73;;;0.20;99.90;;;;;;4968039;28;20218;-68
2024/01/19 07:07:19;;;;;;;1.40;1.40;;;0.20;99.90;;;;;;4965335;28;20205;-69
2024/01/19 07:09:46;;;;;;;1.63;1.20;;;0.10;99.90;;;;;;4963736;28;20205;-67
2024/01/19 07:12:14;;;;;;;2.13;2.03;;;0.10;99.90;;;;;;4966106;28;20240;-69
2024/01/19 07:14:41;;;;;;;0.98;0.98;;;0.10;99.90;;;;;;4963302;28;20319;-70
2024/01/19 07:17:08;;;;;;;1.15;1.13;;;0.10;99.90;;;;;;4967734;28;20224;-68
2024/01/19 07:19:36;;;;;;;0.57;0.57;;;0.10;99.90;;;;;;4962056;28;20213;-68
2024/01/19 07:22:03;;;;;;;1.48;1.30;;;0.20;99.90;;;;;;4964669;28;20229;-68
2024/01/19 07:24:32;;;;;;;1.38;1.38;;;0.30;99.90;;;;;;4966853;28;20205;-68
2024/01/19 07:26:59;;;;;;;3.50;1.30;;;0.30;99.90;;;;;;4967778;28;20216;-68
2024/01/19 07:29:25;;;;;;;1.70;1.70;;;0.20;99.90;;;;;;4961557;28;20218;-68
2024/01/19 07:31:52;;;;;;;1.92;1.92;;;0.20;99.90;;;;;;4969938;28;20232;-68
2024/01/19 07:34:19;;;;;;;1.60;1.60;;;0.20;99.90;;;;;;4961257;28;20209;-69
2024/01/19 07:36:47;;;;;;;1.95;1.85;;;0.20;99.90;;;;;;4965155;28;20216;-69
2024/01/19 07:39:14;;;;;;;1.23;1.15;;;0.20;99.90;;;;;;4960087;28;20209;-71
2024/01/19 07:41:41;;;;;;;2.63;2.05;;;0.10;99.90;;;;;;4958843;28;20237;-68
2024/01/19 07:44:08;;;;;;;1.77;1.67;;;0.10;99.90;;;;;;4961840;28;20269;-68
2024/01/19 07:46:35;;;;;;;2.72;1.95;;;0.10;99.90;;;;;;4967688;28;20228;-68
2024/01/19 07:49:02;;;;;;;1.40;1.40;;;0.20;99.90;;;;;;4970119;28;20235;-67
2024/01/19 07:51:29;;;;;;;2.00;1.90;;;0.20;99.90;;;;;;4961207;28;20244;-68
2024/01/19 07:53:58;;;;;;;2.00;1.80;;;0.20;99.90;;;;;;4958352;28;20213;-69
2024/01/19 07:56:24;;;;;;;0.88;0.88;;;0.20;99.90;;;;;;4962503;28;20231;-68
2024/01/19 07:58:51;;;;;;;1.10;1.10;;;0.20;99.90;;;;;;4962645;28;20618;-72
2024/01/19 08:01:18;;;;;;;3.28;1.90;;;0.20;99.90;;;;;;4962817;28;20236;-70
2024/01/19 08:03:45;;;;;;;1.60;1.50;;;0.20;99.90;;;;;;4960251;28;20206;-69
2024/01/19 08:06:12;;;;;;;2.28;2.08;;;0.30;99.90;;;;;;4962466;28;20213;-68
2024/01/19 08:08:39;;;;;;;2.72;2.63;;;0.30;99.90;;;;;;4961821;28;20233;-68
2024/01/19 08:11:07;;;;;;;2.70;2.30;;;0.30;99.90;;;;;;4961268;28;20221;-68
2024/01/19 08:13:33;;;;;;;2.80;2.00;;;0.30;99.90;;;;;;4963615;28;20582;-69
2024/01/19 08:16:00;;;;;;;2.50;1.70;;;0.30;99.90;;;;;;4960485;28;20211;-69
2024/01/19 08:18:33;;;;;;;2.25;2.15;;;0.40;99.90;;;;;;4961697;28;20239;-69
2024/01/19 08:21:00;;;;;;;2.13;1.70;;;0.40;99.90;;;;;;4965259;28;20248;-70
2024/01/19 08:23:27;;;;;;;2.40;2.28;;;0.50;99.90;;;;;;4971192;28;20240;-69
2024/01/19 08:25:54;;;;;;;3.65;3.50;;;0.60;99.90;;;;;;4963322;28;20205;-70
2024/01/19 08:28:22;;;;;;;2.75;2.40;;;0.70;99.90;;;;;;4965399;28;20197;-70
2024/01/19 08:30:49;;;;;;;3.40;2.15;;;0.80;99.90;;;;;;4974275;28;20220;-70
2024/01/19 08:33:16;;;;;;;2.78;2.67;;;1.00;99.90;;;;;;4967753;28;20857;-71
2024/01/19 08:35:43;;;;;;;3.88;3.08;;;1.00;99.90;;;;;;4962966;28;20219;-69
2024/01/19 08:38:10;;;;;;;3.58;3.20;;;1.00;99.90;;;;;;4964247;28;20221;-69
2024/01/19 08:40:36;;;;;;;3.70;2.45;;;1.00;99.90;;;;;;4962993;28;20242;-70
2024/01/19 08:43:03;;;;;;;2.72;2.55;;;1.10;99.90;;;;;;4968522;28;20223;-72
2024/01/19 08:45:31;;;;;;;4.57;3.08;;;1.10;99.90;;;;;;4962361;28;20220;-68
2024/01/19 08:47:58;;;;;;;3.22;3.03;;;1.00;99.90;;;;;;4964767;28;20740;-68
2024/01/19 08:50:24;;;;;;;3.80;3.50;;;1.00;99.90;;;;;;4966916;28;20218;-68
2024/01/19 08:52:51;;;;;;;2.43;2.33;;;1.00;99.90;;;;;;4964683;28;20199;-69
2024/01/19 08:55:18;;;;;;;3.33;3.22;;;1.00;99.90;;;;;;4965678;28;20915;-71
2024/01/19 08:57:44;;;;;;;3.00;2.70;;;1.10;99.90;;;;;;4965352;28;20222;-71
2024/01/19 09:00:12;;;;;;;11.40;3.45;;;1.00;99.90;;;;;;4959593;28;20313;-68
2024/01/19 09:02:40;;;;;;;8.18;4.32;;;1.00;99.90;;;;;;4971116;28;20219;-69
2024/01/19 09:05:10;;;;;;;4.88;3.30;;;1.00;99.90;;;;;;4960553;28;20663;-70
2024/01/19 09:07:37;;;;;;;3.05;2.50;;;1.10;99.90;;;;;;4961574;28;20200;-69
2024/01/19 09:10:04;;;;;;;3.00;2.80;;;1.10;99.90;;;;;;4967241;28;20220;-69
2024/01/19 09:12:31;;;;;;;5.25;4.70;;;1.00;99.90;;;;;;4967329;28;20228;-73
2024/01/19 09:14:58;;;;;;;3.53;3.28;;;1.00;99.90;;;;;;4965600;28;20216;-69
2024/01/19 09:17:24;;;;;;;2.72;2.53;;;0.90;99.90;;;;;;4963793;28;20574;-68
2024/01/19 09:19:53;;;;;;;3.05;2.90;;;0.90;99.90;;;;;;4957375;28;20217;-69
2024/01/19 09:22:19;;;;;;;3.72;2.22;;;0.90;99.90;;;;;;4955534;28;20244;-69
2024/01/19 09:24:46;;;;;;;4.13;3.90;;;1.00;99.90;;;;;;4957037;28;20209;-68
2024/01/19 09:27:13;;;;;;;6.05;3.63;;;1.00;99.90;;;;;;4957737;28;20673;-71
2024/01/19 09:29:40;;;;;;;3.83;3.05;;;1.00;99.90;;;;;;4954579;28;20223;-69
2024/01/19 09:32:07;;;;;;;4.43;2.85;;;1.00;99.90;;;;;;4953544;28;20249;-70
2024/01/19 09:34:34;;;;;;;6.32;3.05;;;1.10;99.90;;;;;;4957737;28;20232;-70
2024/01/19 09:37:03;;;;;;;3.88;3.58;;;1.20;99.90;;;;;;4955094;28;20252;-70
2024/01/19 09:39:29;;;;;;;2.55;2.42;;;1.20;99.90;;;;;;4970668;28;20211;-70
2024/01/19 09:42:02;;;;;;;3.03;2.25;;;1.20;99.90;;;;;;4959682;28;20229;-69
2024/01/19 09:44:35;;;;;;;3.35;2.95;;;1.20;99.90;;;;;;4971626;28;20232;-71
2024/01/19 09:47:21;;;;;;;3.30;2.30;;;1.20;99.90;;;;;;4963553;28;20624;-70
2024/01/19 09:50:01;;;;;;;3.55;2.17;;;1.30;99.90;;;;;;4957831;28;20207;-69
2024/01/19 09:52:44;;;;;;;1.13;0.98;;;1.30;99.90;;;;;;4964543;28;20230;-69
2024/01/19 09:55:11;;;;;;;2.58;2.50;;;1.40;99.90;;;;;;4960748;28;20216;-70
2024/01/19 09:57:45;;;;;;;3.95;3.63;;;1.50;99.90;;;;;;4968047;28;20229;-69
2024/01/19 10:00:13;;;;;;;3.30;3.10;;;1.50;99.90;;;;;;4970850;28;20200;-70
2024/01/19 10:02:45;;;;;;;2.50;2.38;;;1.70;99.90;;;;;;4963481;28;20215;-68
2024/01/19 10:05:13;;;;;;;3.15;2.95;;;1.80;99.90;;;;;;4964580;28;20246;-69
2024/01/19 10:07:42;;;;;;;2.75;2.05;;;2.00;99.90;;;;;;4963166;28;20258;-69
2024/01/19 10:10:09;;;;;;;5.68;3.42;;;2.10;99.90;;;;;;4966854;28;20273;-70
2024/01/19 10:12:37;;;;;;;20.33;3.92;;;2.20;99.90;;;;;;4962901;28;20206;-69
2024/01/19 10:15:05;;;;;;;3.85;3.65;;;2.20;99.90;;;;;;4960342;28;20210;-68
2024/01/19 10:17:33;;;;;;;2.80;2.60;;;2.20;99.90;;;;;;4956437;28;20300;-69
2024/01/19 10:20:01;;;;;;;3.38;3.08;;;2.20;99.90;;;;;;4959330;28;20218;-69
2024/01/19 10:22:29;;;;;;;3.67;3.58;;;2.30;99.90;;;;;;4962743;28;20242;-72
2024/01/19 10:25:02;;;;;;;4.25;3.85;;;2.40;99.90;;;;;;4954320;28;20219;-69
2024/01/19 10:27:39;;;;;;;4.30;2.90;;;2.40;99.90;;;;;;4956185;28;20207;-69
2024/01/19 10:30:10;;;;;;;2.25;2.10;;;2.30;99.90;;;;;;4965363;28;20629;-68
2024/01/19 10:32:39;;;;;;;2.83;2.63;;;2.20;99.90;;;;;;4956926;28;20262;-69
2024/01/19 10:35:07;;;;;;;1.52;1.52;;;2.10;99.90;;;;;;4958848;28;20218;-72
2024/01/19 10:37:34;;;;;;;3.38;3.28;;;2.10;99.90;;;;;;4954405;28;20228;-68
2024/01/19 10:40:16;;;;;;;2.95;2.65;;;2.10;99.90;;;;;;4954522;28;20213;-69
2024/01/19 10:42:44;;;;;;;4.70;0.95;;;2.10;99.90;;;;;;4955276;28;20234;-70
2024/01/19 10:45:18;;;;;;;5.65;1.73;;;2.10;99.90;;;;;;4955627;28;20251;-69
2024/01/19 10:47:46;;;;;;;1.67;1.58;;;2.10;99.90;;;;;;4953377;28;20220;-69
2024/01/19 10:50:14;;;;;;;2.65;2.45;;;2.10;99.90;;;;;;4958319;28;20216;-68
2024/01/19 10:52:42;;;;;;;6.93;2.45;;;2.20;99.90;;;;;;4959713;28;20237;-68
2024/01/19 10:55:10;;;;;;;2.40;2.25;;;2.20;99.90;;;;;;4954678;28;20211;-68
2024/01/19 10:57:38;;;;;;;2.65;1.98;;;2.30;99.90;;;;;;4955817;28;20226;-70
2024/01/19 11:00:20;;;;;;;2.90;1.95;;;2.40;99.90;;;;;;4964987;28;20226;-69
2024/01/19 11:02:48;;;;;;;3.67;3.47;;;2.40;99.90;;;;;;4956165;28;20206;-67
2024/01/19 11:05:18;;;;;;;4.35;3.47;;;2.40;99.90;;;;;;4955369;28;20678;-68
2024/01/19 11:07:45;;;;;;;1.98;1.95;;;2.40;99.90;;;;;;4961117;28;20304;-71
2024/01/19 11:10:12;;;;;;;1.15;1.15;;;2.40;99.90;;;;;;4966882;28;20233;-68
2024/01/19 11:12:47;;;;;;;2.38;2.28;;;2.40;99.90;;;;;;4963836;28;20298;-69
2024/01/19 11:15:20;;;;;;;2.60;2.10;;;2.40;99.90;;;;;;4966227;28;20351;-68
2024/01/19 11:17:48;;;;;;;5.05;1.50;;;2.50;99.90;;;;;;4967797;28;20247;-69
2024/01/19 11:20:15;;;;;;;1.90;1.80;;;2.50;99.90;;;;;;4968055;28;20216;-69
2024/01/19 11:22:43;;;;;;;1.48;1.05;;;2.50;99.90;;;;;;4960168;28;20211;-69
2024/01/19 11:25:15;;;;;;;2.25;2.15;;;2.50;99.90;;;;;;4959216;28;20284;-70
2024/01/19 11:27:52;;;;;;;2.60;0.98;;;2.50;99.90;;;;;;4960129;28;20289;-67
2024/01/19 11:30:28;;;;;;;6.80;1.90;;;2.60;99.90;;;;;;4958006;28;20217;-69
2024/01/19 11:32:55;;;;;;;2.70;0.93;;;2.60;99.90;;;;;;4958875;28;20219;-67
2024/01/19 11:35:41;;;;;;;13.10;7.28;;;2.60;99.90;;;;;;4960984;28;20218;-68
2024/01/19 11:38:07;;;;;;;2.00;0.93;;;2.60;99.90;;;;;;4968118;28;20233;-69
2024/01/19 11:40:47;;;;;;;1.13;1.08;;;2.70;99.90;;;;;;4963545;28;20249;-69
2024/01/19 11:43:40;;;;;;;3.05;1.48;;;2.70;99.90;;;;;;4967789;28;20206;-68
2024/01/19 11:46:08;;;;;;;6.18;1.27;;;2.80;99.90;;;;;;4969404;28;20213;-69
2024/01/19 11:48:42;;;;;;;2.38;1.55;;;2.90;99.90;;;;;;4966108;28;20211;-69
2024/01/19 11:51:09;;;;;;;12.25;0.98;;;2.90;99.90;;;;;;4963853;28;20234;-68
2024/01/19 11:53:55;;;;;;;1.85;0.95;;;3.00;99.90;;;;;;4964023;28;20206;-70
2024/01/19 11:56:24;;;;;;;3.33;2.17;;;3.00;99.90;;;;;;4960537;28;20698;-68
2024/01/19 11:58:53;;;;;;;2.65;1.00;;;2.90;99.90;;;;;;4958327;28;20231;-68
2024/01/19 12:01:20;;;;;;;4.32;1.58;;;2.90;99.90;;;;;;4963236;28;20251;-67
2024/01/19 12:03:52;;;;;;;3.65;1.05;;;3.00;99.90;;;;;;4957266;28;20202;-68
2024/01/19 12:06:20;;;;;;;1.83;1.73;;;3.00;99.90;;;;;;4957981;28;20206;-69
2024/01/19 12:09:00;;;;;;;4.97;2.03;;;3.10;99.90;;;;;;4960527;28;20231;-67
2024/01/19 12:11:27;;;;;;;1.95;1.38;;;3.20;99.90;;;;;;4956991;28;20288;-67
2024/01/19 12:13:57;;;;;;;1.30;1.17;;;3.20;99.90;;;;;;4963395;28;20708;-68
2024/01/19 12:16:24;;;;;;;1.30;1.17;;;3.20;99.90;;;;;;4957618;28;20243;-68
2024/01/19 12:18:55;;;;;;;2.58;1.25;;;3.20;99.90;;;;;;4971086;28;20745;-69
2024/01/19 12:21:21;;;;;;;1.08;1.08;;;3.20;99.90;;;;;;4969131;28;20238;-68
2024/01/19 12:23:53;;;;;;;1.50;1.40;;;3.10;99.90;;;;;;4968259;28;20215;-69
2024/01/19 12:26:21;;;;;;;1.10;1.10;;;3.10;99.90;;;;;;4968444;28;20239;-68
2024/01/19 12:28:50;;;;;;;11.48;2.15;;;3.10;99.90;;;;;;4964118;28;20262;-67
2024/01/19 12:31:26;;;;;;;1.52;1.52;;;3.00;99.90;;;;;;4961972;28;20230;-71
2024/01/19 12:33:53;;;;;;;1.48;1.40;;;2.90;99.90;;;;;;4965176;28;20722;-69
2024/01/19 12:36:27;;;;;;;5.90;2.30;;;2.90;99.90;;;;;;4965267;28;20267;-68
2024/01/19 12:39:05;;;;;;;0.90;0.90;;;2.70;99.90;;;;;;4965468;28;20281;-68
2024/01/19 12:41:32;;;;;;;14.07;2.47;;;2.60;99.90;;;;;;4969435;28;20229;-72
2024/01/19 12:44:00;;;;;;;6.43;1.13;;;2.50;99.90;;;;;;4958757;28;20590;-69
2024/01/19 12:46:28;;;;;;;1.30;1.30;;;2.50;99.90;;;;;;4958756;28;20215;-68
2024/01/19 12:48:58;;;;;;;6.95;1.67;;;2.50;99.90;;;;;;4957847;28;20223;-68
2024/01/19 12:51:25;;;;;;;4.97;1.25;;;2.40;99.90;;;;;;4954920;28;20238;-69
2024/01/19 12:53:54;;;;;;;5.32;1.45;;;2.40;99.90;;;;;;4962273;28;20215;-68
2024/01/19 12:56:27;;;;;;;1.10;1.10;;;2.30;99.90;;;;;;4962095;28;20559;-71
2024/01/19 12:59:05;;;;;;;1.83;1.70;;;2.20;99.90;;;;;;4962880;28;20234;-69
2024/01/19 13:01:33;;;;;;;5.85;3.25;;;2.10;99.90;;;;;;4967803;28;20234;-70
2024/01/19 13:04:00;;;;;;;3.70;2.13;;;2.10;99.90;;;;;;4955360;28;20215;-69
2024/01/19 13:06:27;;;;;;;9.10;2.20;;;2.00;99.90;;;;;;4966353;28;20214;-69
2024/01/19 13:08:54;;;;;;;4.28;2.45;;;2.00;99.90;;;;;;4967142;28;20269;-69
2024/01/19 13:11:23;;;;;;;2.22;2.00;;;2.00;99.90;;;;;;4965168;28;20321;-70
2024/01/19 13:14:00;;;;;;;1.50;1.40;;;2.00;99.90;;;;;;4969041;28;20210;-69
2024/01/19 13:16:26;;;;;;;2.20;2.10;;;2.10;99.90;;;;;;4961341;28;20211;-69
2024/01/19 13:19:02;;;;;;;2.17;1.98;;;2.00;99.90;;;;;;4963945;28;20225;-68
2024/01/19 13:21:29;;;;;;;2.13;1.95;;;2.00;99.90;;;;;;4978011;28;20225;-68
2024/01/19 13:23:56;;;;;;;1.83;1.73;;;2.00;99.90;;;;;;4972891;28;20730;-71
2024/01/19 13:26:24;;;;;;;8.13;3.08;;;2.10;99.90;;;;;;4971390;28;20217;-69
2024/01/19 13:28:51;;;;;;;6.10;2.95;;;2.20;99.90;;;;;;4964506;28;20309;-68
2024/01/19 13:31:18;;;;;;;10.02;2.65;;;2.30;99.90;;;;;;4963131;28;20239;-73
2024/01/19 13:33:46;;;;;;;5.03;2.00;;;2.40;99.90;;;;;;4966226;28;20202;-70
2024/01/19 13:36:16;;;;;;;2.20;2.10;;;2.40;99.90;;;;;;4983224;28;20650;-72
2024/01/19 13:38:43;;;;;;;2.30;2.20;;;2.40;99.90;;;;;;4962737;28;20223;-70
2024/01/19 13:41:12;;;;;;;4.57;1.85;;;2.30;99.90;;;;;;4963519;28;20318;-71
2024/01/19 13:43:43;;;;;;;5.22;3.00;;;2.30;99.90;;;;;;4960402;28;20263;-70
2024/01/19 13:46:10;;;;;;;3.13;1.95;;;2.20;99.90;;;;;;4966378;28;20204;-70
2024/01/19 13:48:37;;;;;;;5.80;2.75;;;2.20;99.90;;;;;;4972272;28;20215;-69
2024/01/19 13:51:04;;;;;;;2.50;2.40;;;2.20;99.90;;;;;;4974124;28;20226;-70
2024/01/19 13:53:32;;;;;;;1.60;1.50;;;2.20;99.90;;;;;;4973195;28;20209;-70
2024/01/19 13:55:59;;;;;;;4.93;3.47;;;2.20;99.90;;;;;;4966300;28;20658;-70
2024/01/19 13:58:26;;;;;;;9.43;3.08;;;2.20;99.90;;;;;;4965557;28;20713;-69
2024/01/19 14:00:53;;;;;;;1.80;1.70;;;2.20;99.90;;;;;;4966389;28;20243;-69
2024/01/19 14:03:20;;;;;;;2.55;2.40;;;2.20;99.90;;;;;;4964662;28;20779;-70
2024/01/19 14:05:48;;;;;;;2.75;2.60;;;2.20;99.90;;;;;;4965694;28;20210;-70
2024/01/19 14:08:16;;;;;;;4.28;3.72;;;2.20;99.90;;;;;;4974467;28;20200;-69
2024/01/19 14:10:48;;;;;;;6.32;2.40;;;2.20;99.90;;;;;;4966254;28;20258;-69
2024/01/19 14:13:15;;;;;;;4.20;1.98;;;2.20;99.90;;;;;;4965212;28;20211;-69
2024/01/19 14:15:43;;;;;;;3.55;3.40;;;2.20;99.90;;;;;;4980758;28;20208;-69
2024/01/19 14:18:10;;;;;;;2.83;2.60;;;2.20;99.90;;;;;;4973095;28;20209;-69
2024/01/19 14:20:37;;;;;;;2.17;1.85;;;2.20;99.90;;;;;;4972851;28;20226;-69
2024/01/19 14:23:04;;;;;;;3.80;3.00;;;2.20;99.90;;;;;;4969573;28;20216;-68
2024/01/19 14:25:31;;;;;;;2.78;2.50;;;2.20;99.90;;;;;;4964410;28;20207;-70
2024/01/19 14:27:59;;;;;;;2.33;2.13;;;2.20;99.90;;;;;;4969804;28;20217;-68
2024/01/19 14:30:26;;;;;;;2.05;1.80;;;2.20;99.90;;;;;;4965396;28;20211;-68
2024/01/19 14:32:54;;;;;;;2.88;2.75;;;2.20;99.90;;;;;;4965997;28;20216;-68
2024/01/19 14:35:22;;;;;;;1.80;1.70;;;2.20;99.90;;;;;;4964904;28;20207;-68
2024/01/19 14:37:49;;;;;;;2.55;1.80;;;2.20;99.90;;;;;;4960584;28;20208;-68
2024/01/19 14:40:16;;;;;;;2.42;2.13;;;2.20;99.90;;;;;;4966860;28;20233;-69
2024/01/19 14:42:42;;;;;;;7.55;1.75;;;2.20;99.90;;;;;;4967144;28;20206;-69
2024/01/19 14:45:11;;;;;;;3.13;1.50;;;2.20;99.90;;;;;;4961943;28;20211;-71
2024/01/19 14:47:38;;;;;;;1.30;1.30;;;2.20;99.90;;;;;;4966026;28;20216;-69
2024/01/19 14:50:06;;;;;;;2.00;1.85;;;2.20;99.90;;;;;;4965870;28;20198;-68
2024/01/19 14:52:33;;;;;;;1.92;1.73;;;2.20;99.90;;;;;;4967503;28;20230;-68
2024/01/19 14:55:05;;;;;;;7.38;1.67;;;2.20;99.90;;;;;;4962278;28;20215;-68
2024/01/19 14:57:31;;;;;;;5.43;1.75;;;2.20;99.90;;;;;;4965355;28;20690;-69
2024/01/19 14:59:59;;;;;;;2.67;1.48;;;2.20;99.90;;;;;;4970045;28;20236;-68
2024/01/19 15:02:27;;;;;;;2.38;2.15;;;2.20;99.90;;;;;;4965984;28;20242;-68
2024/01/19 15:04:54;;;;;;;1.35;1.13;;;2.20;99.90;;;;;;4964239;28;20211;-68
2024/01/19 15:07:20;;;;;;;4.40;1.20;;;2.20;99.90;;;;;;4960847;28;20210;-68
2024/01/19 15:09:47;;;;;;;1.98;1.70;;;2.20;99.90;;;;;;4963199;28;20230;-68
2024/01/19 15:12:14;;;;;;;8.15;2.38;;;2.10;99.90;;;;;;4964242;28;20236;-67
2024/01/19 15:14:40;;;;;;;1.42;1.30;;;2.10;99.90;;;;;;4967168;28;20207;-69
2024/01/19 15:17:07;;;;;;;4.68;1.40;;;2.10;99.90;;;;;;4976609;28;20208;-69
2024/01/19 15:19:35;;;;;;;0.63;0.63;;;2.10;99.90;;;;;;4965606;28;20248;-70
2024/01/19 15:22:02;;;;;;;0.75;0.75;;;2.10;99.90;;;;;;4959255;28;20241;-69
2024/01/19 15:24:29;;;;;;;0.82;0.82;;;2.10;99.90;;;;;;4966750;28;20208;-70
2024/01/19 15:26:56;;;;;;;1.25;1.20;;;2.10;99.90;;;;;;4975103;28;20256;-71
2024/01/19 15:29:22;;;;;;;1.02;0.98;;;2.00;99.90;;;;;;4964769;28;20203;-69
2024/01/19 15:31:49;;;;;;;2.47;1.08;;;2.00;99.90;;;;;;4971489;28;20820;-69
2024/01/19 15:34:16;;;;;;;9.48;2.20;;;2.00;99.90;;;;;;4964533;28;20233;-70
2024/01/19 15:36:44;;;;;;;0.90;0.70;;;2.00;99.90;;;;;;4972153;28;20209;-69
2024/01/19 15:39:11;;;;;;;1.50;1.40;;;2.00;99.90;;;;;;4963888;28;20318;-70
2024/01/19 15:41:37;;;;;;;1.75;1.65;;;2.00;99.90;;;;;;4964055;28;20257;-70
2024/01/19 15:44:05;;;;;;;0.40;0.40;;;1.90;99.90;;;;;;4970446;28;20762;-69
2024/01/19 15:46:32;;;;;;;0.68;0.68;;;1.90;99.90;;;;;;4961574;28;20619;-69
2024/01/19 15:48:59;;;;;;;1.05;1.05;;;1.90;99.90;;;;;;4967667;28;20210;-70
2024/01/19 15:51:26;;;;;;;0.80;0.80;;;1.90;99.90;;;;;;4959443;28;20721;-69
2024/01/19 15:53:55;;;;;;;14.05;2.63;;;1.90;99.90;;;;;;4969743;28;20669;-70
2024/01/19 15:56:23;;;;;;;0.90;0.90;;;1.90;99.90;;;;;;4972534;28;20610;-71
2024/01/19 15:58:50;;;;;;;2.45;1.48;;;1.90;99.90;;;;;;4964930;28;20727;-69
2024/01/19 16:01:17;;;;;;;0.60;0.60;;;1.90;99.90;;;;;;4970259;28;20241;-72
2024/01/19 16:03:44;;;;;;;1.08;1.08;;;1.90;99.90;;;;;;4967221;28;20217;-71
2024/01/19 16:06:12;;;;;;;1.50;0.73;;;1.90;99.90;;;;;;4965479;28;20201;-69
2024/01/19 16:08:39;;;;;;;12.30;5.07;;;1.90;99.90;;;;;;4962566;28;20222;-69
2024/01/19 16:11:08;;;;;;;0.88;0.88;;;1.90;99.90;;;;;;4959933;28;20221;-69
2024/01/19 16:13:35;;;;;;;1.35;1.35;;;1.80;99.90;;;;;;4966895;28;20204;-69
2024/01/19 16:16:05;;;;;;;1.20;1.20;;;1.90;99.90;;;;;;4963713;28;20209;-68
2024/01/19 16:18:32;;;;;;;1.67;1.00;;;1.80;99.90;;;;;;4968715;28;20205;-67
2024/01/19 16:20:59;;;;;;;2.22;1.23;;;1.80;99.90;;;;;;4965194;28;20319;-70
2024/01/19 16:23:25;;;;;;;1.55;1.45;;;1.90;99.90;;;;;;4960128;28;20211;-68
2024/01/19 16:25:52;;;;;;;1.95;1.63;;;1.90;99.90;;;;;;4962242;28;20221;-68
2024/01/19 16:28:20;;;;;;;3.13;1.65;;;1.90;99.90;;;;;;4960725;28;20223;-69
2024/01/19 16:30:47;;;;;;;3.17;1.40;;;2.00;99.90;;;;;;4963743;28;20225;-70
2024/01/19 16:33:14;;;;;;;2.22;2.08;;;1.90;99.90;;;;;;4965418;28;20212;-68
2024/01/19 16:35:40;;;;;;;2.70;2.45;;;1.90;99.90;;;;;;4963342;28;20232;-67
2024/01/19 16:38:07;;;;;;;1.05;1.05;;;1.90;99.90;;;;;;4954811;28;20337;-69
2024/01/19 16:40:34;;;;;;;3.60;0.80;;;1.90;99.90;;;;;;4969550;28;20244;-68
2024/01/19 16:43:00;;;;;;;3.35;1.60;;;1.90;99.90;;;;;;4963355;28;20212;-68
2024/01/19 16:45:28;;;;;;;2.08;1.80;;;1.90;99.90;;;;;;4977663;28;20209;-71
2024/01/19 16:47:57;;;;;;;1.25;1.25;;;1.90;99.90;;;;;;4969430;28;20214;-71
2024/01/19 16:50:23;;;;;;;3.78;2.50;;;1.90;99.90;;;;;;4960213;28;20221;-69
2024/01/19 16:52:50;;;;;;;1.60;1.50;;;1.90;99.90;;;;;;4963892;28;20217;-69
2024/01/19 16:55:17;;;;;;;5.32;1.70;;;1.80;99.90;;;;;;4960667;28;20207;-69
2024/01/19 16:57:44;;;;;;;1.77;1.77;;;1.80;99.90;;;;;;4970834;28;20212;-69
2024/01/19 17:00:12;;;;;;;2.13;1.92;;;1.80;99.90;;;;;;4969720;28;20224;-69
2024/01/19 17:02:40;;;;;;;2.63;2.45;;;1.80;99.90;;;;;;4972118;28;20240;-70
2024/01/19 17:05:07;;;;;;;1.80;1.80;;;1.80;99.90;;;;;;4957706;28;20681;-69
2024/01/19 17:07:34;;;;;;;2.30;1.70;;;1.80;99.90;;;;;;4970983;28;20215;-70
2024/01/19 17:10:00;;;;;;;2.78;1.42;;;1.80;99.90;;;;;;4973949;28;20207;-68
2024/01/19 17:12:27;;;;;;;4.40;2.17;;;1.80;99.90;;;;;;4962425;28;20228;-69
2024/01/19 17:14:56;;;;;;;1.60;1.50;;;1.70;99.90;;;;;;4969262;28;20669;-70
2024/01/19 17:17:22;;;;;;;2.00;1.88;;;1.70;99.90;;;;;;4965858;28;20210;-69
2024/01/19 17:19:50;;;;;;;3.58;1.60;;;1.80;99.90;;;;;;4970385;28;20234;-70
2024/01/19 17:22:17;;;;;;;2.65;1.70;;;1.80;99.90;;;;;;4965008;28;21952;-69
2024/01/19 17:24:44;;;;;;;3.95;2.85;;;1.70;99.90;;;;;;4964711;28;20205;-69
2024/01/19 17:27:10;;;;;;;2.22;2.20;;;1.80;99.90;;;;;;4960152;28;20214;-68
2024/01/19 17:29:37;;;;;;;3.15;2.13;;;1.80;99.90;;;;;;4963360;28;20210;-69
2024/01/19 17:32:04;;;;;;;2.45;2.35;;;1.80;99.90;;;;;;4970213;28;20226;-69
2024/01/19 17:34:31;;;;;;;2.53;2.38;;;1.80;99.90;;;;;;4967141;28;20205;-69
2024/01/19 17:37:00;;;;;;;3.75;3.30;;;1.80;99.90;;;;;;4966754;28;20210;-68
2024/01/19 17:39:27;;;;;;;11.43;3.03;;;1.80;99.90;;;;;;4963429;28;20690;-70
2024/01/19 17:41:53;;;;;;;3.63;2.83;;;1.80;99.90;;;;;;4967087;28;20245;-69
2024/01/19 17:44:20;;;;;;;4.55;3.35;;;1.90;99.90;;;;;;4957548;28;20206;-70
2024/01/19 17:46:47;;;;;;;4.97;3.22;;;1.90;99.90;;;;;;4965102;28;20208;-69
2024/01/19 17:49:13;;;;;;;3.78;1.90;;;1.90;99.90;;;;;;4970342;28;20231;-68
2024/01/19 17:51:41;;;;;;;5.15;2.65;;;1.90;99.90;;;;;;4967162;28;20743;-70
2024/01/19 17:54:09;;;;;;;2.17;2.13;;;1.90;99.90;;;;;;4965062;28;20288;-69
2024/01/19 17:56:37;;;;;;;2.80;2.20;;;1.90;99.90;;;;;;4967445;28;20202;-70
2024/01/19 17:59:04;;;;;;;3.78;2.83;;;1.90;99.90;;;;;;4964054;28;20731;-69
2024/01/19 18:01:31;;;;;;;3.22;2.47;;;1.90;99.90;;;;;;4967617;28;20240;-71